Wiccopee, New York
Current Conditions -  °F | °C
As of 7:53 PM on Saturday 25 Oct 2014 (Local Time) from KPOU Reporting Station
Clear Clear  
Wind Chill: 55°   Ceiling: Unl
Heat Index: 55°   Visibility: 10mi
Dew Point: 45°   Wind: 0mph
Humidity: 69%   Direction: NA
Pressure: 29.58"   Gusts: NA
Location:  41.562°N, 73.7865°W
Report Text: KPOU 252353Z 00000KT 10SM CLR 13/07 A2958 RMK AO2 SLP015 T01280072 10189 20128 58017
Loading
Personal Weather Stations






























Interactive Weather Map
Tropical Storm Tracking
New forecast layout! Learn more

10-Day Weather Forecast

Advertisements
Track Severe Weather on mobile